Detall de PIREP

Printer-friendly versionPDF version

[2015/01/01 10:48:00]
Flight IATA:CT3100
Pilot Number:044
Company ICAO:CAT
Aircraft Type:B463/A
PAX:90
Aircraft Registration:PAX
Departing Airport: LIEA
Destination Airport: LEBL
Alternate Airport:LERS
Online: VATSIM
Route:GINOX UM601 VERSO
Flight Level:F270
No Slew and time accel
No pause
Crash detect
Detect pilot in Cockpit between each 30 and 45 minutes
10:48 Zero fuel Weight: 74341 Lbs, Fuel Weight: 14462 Lbs
10:48 VATSIM:LIEA 011020Z 05004KT 010V080 CAVOK 09/01 Q1032
10:48 VATSIM:LEBL 011030Z 32006KT 9999 FEW035 08/01 Q1036 NOSIG
10:56 Parking Brakes off
11:02 Take-off
11:02 Take off Weight: 88230 Lbs
11:02 Wind: 061º @ 004 Knots Heading: 024º
11:02 POS N40º 37´ 55´´ E008º 17´ 27´´
11:02 Flaps:1 at 174 Knots
11:02 Gear Up: 176 Knots
11:03 Flaps:0 at 152 Knots
11:17 Wind:034º@013 Knots Heading: 273º Ground Speed: 255 Knots Altitude 26673 ft
11:17 TOC
11:17Fuel Weight: 11963 Lb
11:32 Wind:000º@022 Knots Heading: 285º Ground Speed: 367 Knots Altitude 27575 ft
11:45 TOD
11:45 Fuel Weight: 9693 Lb
11:47 Wind:000º@022 Knots Heading: 285º Ground Speed: 272 Knots Altitude 24668 ft
12:00 Flaps:1 at 180 Knots
12:01 Flaps:2 at 166 Knots
12:01 Flaps:3 at 167 Knots
12:01 Gear Down: 168 Knots
12:02 Wind:000º@007 Knots Heading: 246º Ground Speed: 167 Knots Altitude 1935 ft
12:02 Flaps:4 at 146 Knots
12:04 TouchDown:Rate -209 ft/min Speed: 118 Knots
12:04 VATSIM:LEBL 011200Z 22011KT 9999 FEW035 12/03 Q1035 NOSIG
12:04 Land
12:04 Wind:010º@005 Knots
12:04 Heading: 243º
12:04 Flight Duration: 01:02
12:04 Landing Weight: 83281 Lbs
12:04 POS N41º 18´ 01´´ E002º 05´ 17´´
12:05 Parking brakes on
12:05 Block to Block Duration: 01:09
12:05 Final Fuel: 8906 Lbls
12:05 Spent Fuel: 5555 Lbls
12:05 Flight Length: 301 NM
12:05 TOD Land Length: 73 NM

Exportar CSV

Powered by Drupal - Modified by Danger4k